createdAt,value
2023-02-21T00:00:36.314Z,74.60
2023-02-21T00:05:56.874Z,74.54
2023-02-21T00:11:17.666Z,73.85
2023-02-21T00:16:39.671Z,73.60
2023-02-21T00:22:00.440Z,73.51
2023-02-21T00:27:21.392Z,73.78
2023-02-21T00:32:43.796Z,73.97
2023-02-21T00:38:08.155Z,73.73
2023-02-21T00:43:28.773Z,74.10
2023-02-21T00:48:51.008Z,74.83
2023-02-21T00:54:12.004Z,74.85
2023-02-21T00:59:32.592Z,74.35
2023-02-21T01:04:54.616Z,75.46
2023-02-21T01:10:14.971Z,75.92
2023-02-21T01:15:35.418Z,75.63
2023-02-21T01:20:57.422Z,76.17
2023-02-21T01:26:17.959Z,75.16
2023-02-21T01:31:38.912Z,75.28
2023-02-21T01:37:01.123Z,75.20
2023-02-21T01:42:22.157Z,75.65
2023-02-21T01:47:43.620Z,76.30
2023-02-21T01:53:06.292Z,76.34
2023-02-21T01:58:26.758Z,76.38
2023-02-21T02:03:49.762Z,76.06
2023-02-21T02:09:12.225Z,75.35
2023-02-21T02:14:35.676Z,75.88
2023-02-21T02:20:02.857Z,75.74
2023-02-21T02:25:20.128Z,76.03
2023-02-21T02:30:55.637Z,75.68
2023-02-21T02:36:05.289Z,74.99
2023-02-21T02:41:17.542Z,75.26
2023-02-21T02:46:25.024Z,76.08
2023-02-21T02:51:30.643Z,76.17
2023-02-21T02:56:35.376Z,77.35
2023-02-21T03:02:06.303Z,77.50
2023-02-21T03:07:19.151Z,77.74
2023-02-21T03:12:31.289Z,77.87
2023-02-21T03:17:41.436Z,78.46
2023-02-21T03:22:47.805Z,79.40
2023-02-21T03:27:53.583Z,78.97
2023-02-21T03:32:57.236Z,79.39
2023-02-21T03:38:01.809Z,78.94
2023-02-21T03:43:08.084Z,78.93
2023-02-21T03:48:15.494Z,78.61
2023-02-21T03:53:20.131Z,79.76
2023-02-21T03:58:23.276Z,78.24
2023-02-21T04:03:26.588Z,78.28
2023-02-21T04:08:31.165Z,78.52
2023-02-21T04:13:34.329Z,79.97
2023-02-21T04:18:37.860Z,79.46
2023-02-21T04:23:42.442Z,79.62
2023-02-21T04:28:45.635Z,78.93
2023-02-21T04:33:50.293Z,77.70
2023-02-21T04:38:57.759Z,77.91
2023-02-21T04:44:01.065Z,77.39
2023-02-21T04:49:04.704Z,77.25
2023-02-21T04:54:09.431Z,77.32
2023-02-21T04:59:12.996Z,77.63
2023-02-21T05:04:16.360Z,77.84
2023-02-21T05:09:21.071Z,77.07
2023-02-21T05:14:24.330Z,76.34
2023-02-21T05:19:28.532Z,76.46
2023-02-21T05:24:33.203Z,75.85
2023-02-21T05:29:36.368Z,76.16
2023-02-21T05:34:41.586Z,75.94
2023-02-21T05:39:46.281Z,76.85
2023-02-21T05:44:49.571Z,77.17
2023-02-21T05:49:52.958Z,76.57
2023-02-21T05:54:57.675Z,75.88
2023-02-21T06:00:00.984Z,76.11
2023-02-21T06:05:04.216Z,76.70
2023-02-21T06:10:09.171Z,76.78
2023-02-21T06:15:13.332Z,76.75
2023-02-21T06:20:17.099Z,77.78
2023-02-21T06:25:21.787Z,77.75
2023-02-21T06:30:25.990Z,77.40
2023-02-21T06:35:29.362Z,77.32
2023-02-21T06:40:34.044Z,78.45
2023-02-21T06:45:37.319Z,78.31
2023-02-21T06:50:40.592Z,78.17
2023-02-21T06:55:45.207Z,78.33
2023-02-21T07:00:48.487Z,77.67
2023-02-21T07:05:51.729Z,78.34
2023-02-21T07:10:56.706Z,78.90
2023-02-21T07:16:00.030Z,78.96
2023-02-21T07:21:03.328Z,78.69
2023-02-21T07:26:08.082Z,78.82
2023-02-21T07:31:12.287Z,78.93
2023-02-21T07:36:15.811Z,78.00
2023-02-21T07:41:20.628Z,77.97
2023-02-21T07:46:28.912Z,78.45
2023-02-21T07:51:32.646Z,77.84
2023-02-21T07:56:37.271Z,76.92
2023-02-21T08:01:40.542Z,77.33
2023-02-21T08:06:43.780Z,77.20
2023-02-21T08:11:48.460Z,76.78
2023-02-21T08:16:51.688Z,78.71
2023-02-21T08:21:55.025Z,77.73
2023-02-21T08:26:59.634Z,78.31
2023-02-21T08:32:03.017Z,78.37
2023-02-21T08:37:06.918Z,76.99
2023-02-21T08:42:13.413Z,76.33
2023-02-21T08:47:17.929Z,75.82
2023-02-21T08:52:22.527Z,75.75
2023-02-21T08:57:27.259Z,75.08
2023-02-21T09:02:31.625Z,74.48
2023-02-21T09:07:34.943Z,72.84
2023-02-21T09:12:40.129Z,71.74
2023-02-21T09:17:43.376Z,71.64
2023-02-21T09:22:47.414Z,72.27
2023-02-21T09:27:53.369Z,72.34
2023-02-21T09:32:58.615Z,72.56
2023-02-21T09:38:02.966Z,72.58
2023-02-21T09:43:18.521Z,71.76
2023-02-21T09:48:24.847Z,71.54
2023-02-21T09:53:30.754Z,73.35
2023-02-21T09:58:37.590Z,72.79
2023-02-21T10:03:49.601Z,72.93
2023-02-21T10:08:58.857Z,73.33
2023-02-21T10:14:13.541Z,72.75
2023-02-21T10:19:23.052Z,73.17
2023-02-21T10:24:28.642Z,72.18
2023-02-21T10:29:42.282Z,72.19
2023-02-21T10:34:48.282Z,71.09
2023-02-21T10:39:54.841Z,70.83
2023-02-21T10:45:01.667Z,70.08
2023-02-21T10:50:08.156Z,68.98
2023-02-21T10:55:31.904Z,68.32
2023-02-21T11:00:39.179Z,67.68
2023-02-21T11:05:42.461Z,67.59
2023-02-21T11:10:46.337Z,67.22
2023-02-21T11:16:08.309Z,66.29
2023-02-21T11:21:15.334Z,62.87
2023-02-21T11:26:18.845Z,60.38
2023-02-21T11:31:30.591Z,56.94
2023-02-21T11:36:36.536Z,56.33
2023-02-21T11:41:48.015Z,54.49
2023-02-21T11:47:00.409Z,53.92
2023-02-21T11:52:07.477Z,52.55
2023-02-21T11:57:19.012Z,50.44
2023-02-21T12:03:01.896Z,49.75
2023-02-21T12:08:25.410Z,48.43
2023-02-21T12:13:38.873Z,46.77
2023-02-21T12:19:00.359Z,47.18
2023-02-21T12:24:21.360Z,44.93
2023-02-21T12:29:41.046Z,44.06
2023-02-21T12:35:03.934Z,42.83
2023-02-21T12:40:21.872Z,42.22
2023-02-21T12:45:39.758Z,43.19
2023-02-21T12:50:48.407Z,43.84
2023-02-21T12:55:57.383Z,42.35
2023-02-21T13:01:06.975Z,40.66
2023-02-21T13:06:19.744Z,40.20
2023-02-21T13:11:28.544Z,40.55
2023-02-21T13:16:33.084Z,44.30
2023-02-21T13:21:52.751Z,43.63
2023-02-21T13:27:11.808Z,46.51
2023-02-21T13:32:17.766Z,49.46
2023-02-21T13:37:25.774Z,52.77
2023-02-21T13:42:31.339Z,54.00
2023-02-21T13:48:31.385Z,52.31
2023-02-21T13:54:09.622Z,53.78
2023-02-21T13:59:36.388Z,54.82
2023-02-21T14:05:02.579Z,54.00
2023-02-21T14:10:25.906Z,55.01
2023-02-21T14:15:44.337Z,57.24
2023-02-21T14:20:50.579Z,58.28
2023-02-21T14:26:03.828Z,56.99
2023-02-21T14:31:07.382Z,56.30
2023-02-21T14:36:15.238Z,56.29
2023-02-21T14:41:39.463Z,56.46
2023-02-21T14:47:10.353Z,58.02
2023-02-21T14:52:49.040Z,57.92
2023-02-21T14:58:14.690Z,58.08
2023-02-21T15:03:22.929Z,57.66
2023-02-21T15:08:27.281Z,57.17
2023-02-21T15:13:34.294Z,57.30
2023-02-21T15:18:39.176Z,58.31
2023-02-21T15:23:44.646Z,58.48
2023-02-21T15:29:05.717Z,57.42
2023-02-21T15:34:18.590Z,58.75
2023-02-21T15:39:30.716Z,59.63
2023-02-21T15:44:41.420Z,58.76
2023-02-21T15:49:47.782Z,58.57
2023-02-21T15:54:51.056Z,57.52
2023-02-21T16:00:19.417Z,57.56
2023-02-21T16:05:28.864Z,59.23
2023-02-21T16:10:33.485Z,59.32
2023-02-21T16:15:38.800Z,60.14
2023-02-21T16:20:42.533Z,60.51
2023-02-21T16:26:00.731Z,60.67
2023-02-21T16:31:07.699Z,60.89
2023-02-21T16:36:20.637Z,62.78
2023-02-21T16:41:24.087Z,62.70
2023-02-21T16:46:30.423Z,63.70
2023-02-21T16:51:35.389Z,64.72
2023-02-21T16:56:40.174Z,65.83
2023-02-21T17:01:44.927Z,65.05
2023-02-21T17:06:48.860Z,67.22
2023-02-21T17:11:53.224Z,66.93
2023-02-21T17:16:57.909Z,67.13
2023-02-21T17:22:01.376Z,67.35
2023-02-21T17:27:04.689Z,68.60
2023-02-21T17:32:09.399Z,68.88
2023-02-21T17:37:12.848Z,69.27
2023-02-21T17:42:16.068Z,69.01
2023-02-21T17:47:23.523Z,69.66
2023-02-21T17:52:27.637Z,69.00
2023-02-21T17:57:35.949Z,69.41
2023-02-21T18:02:41.245Z,69.25
2023-02-21T18:07:48.064Z,69.36
2023-02-21T18:12:51.781Z,69.60
2023-02-21T18:17:56.503Z,69.96
2023-02-21T18:22:59.757Z,70.17
2023-02-21T18:28:03.608Z,69.92
2023-02-21T18:33:08.472Z,70.14
2023-02-21T18:38:13.226Z,71.36
2023-02-21T18:43:20.888Z,70.58
2023-02-21T18:48:27.231Z,70.38
2023-02-21T18:53:30.491Z,70.50
2023-02-21T18:58:33.745Z,70.84
2023-02-21T19:03:38.455Z,70.68
2023-02-21T19:08:41.740Z,70.63
2023-02-21T19:13:47.522Z,70.47
2023-02-21T19:18:54.689Z,70.53
2023-02-21T19:23:57.974Z,70.43
2023-02-21T19:29:01.284Z,70.83
2023-02-21T19:34:06.254Z,71.03
2023-02-21T19:39:11.835Z,70.97
2023-02-21T19:44:15.273Z,71.10
2023-02-21T19:49:20.968Z,71.65
2023-02-21T19:54:27.228Z,71.10
2023-02-21T19:59:30.504Z,70.98
2023-02-21T20:04:35.688Z,71.54
2023-02-21T20:09:39.238Z,71.93
2023-02-21T20:14:46.190Z,71.78
2023-02-21T20:19:51.392Z,71.60
2023-02-21T20:24:55.802Z,71.27
2023-02-21T20:29:59.052Z,70.95
2023-02-21T20:35:03.793Z,70.94
2023-02-21T20:40:10.936Z,70.67
2023-02-21T20:45:14.190Z,70.14
2023-02-21T20:50:21.382Z,69.78
2023-02-21T20:55:25.429Z,69.68
2023-02-21T21:00:30.665Z,69.53
2023-02-21T21:05:35.284Z,69.39
2023-02-21T21:10:38.643Z,69.49
2023-02-21T21:15:43.826Z,69.51
2023-02-21T21:20:48.558Z,70.08
2023-02-21T21:25:51.839Z,70.15
2023-02-21T21:30:55.138Z,70.21
2023-02-21T21:35:59.928Z,70.08
2023-02-21T21:41:13.448Z,70.17
2023-02-21T21:46:16.913Z,70.25
2023-02-21T21:51:28.282Z,70.28
2023-02-21T21:56:31.698Z,70.40
2023-02-21T22:01:35.057Z,70.89
2023-02-21T22:06:39.894Z,70.54
2023-02-21T22:11:44.482Z,70.27
2023-02-21T22:16:49.892Z,70.06
2023-02-21T22:21:55.993Z,70.39
2023-02-21T22:26:59.348Z,70.32
2023-02-21T22:32:02.603Z,70.41
2023-02-21T22:37:07.251Z,70.28
2023-02-21T22:42:10.516Z,70.37
2023-02-21T22:47:14.076Z,70.07
2023-02-21T22:52:18.758Z,70.27
2023-02-21T22:57:22.106Z,70.61
2023-02-21T23:02:25.848Z,70.82
2023-02-21T23:07:31.557Z,71.29
2023-02-21T23:12:34.800Z,71.67
2023-02-21T23:17:38.318Z,71.71
2023-02-21T23:22:45.255Z,71.81
2023-02-21T23:27:49.993Z,71.79
2023-02-21T23:32:53.252Z,72.07
2023-02-21T23:38:00.309Z,71.98
2023-02-21T23:43:03.556Z,72.23
2023-02-21T23:48:09.329Z,72.44
2023-02-21T23:53:16.009Z,72.72
2023-02-21T23:58:22.117Z,72.97
